Time;durP1;ratioP1;P1;durP2;ratioP2;P2;SDS_P1;SDS_P2;PMS_P1;PMS_P2;Temp;Humidity;BMP_temperature;BMP_pressure;BME280_temperature;BME280_humidity;BME280_pressure;Samples;Min_cycle;Max_cycle;Signal;HPM_P1;HPM_P2
2022/11/26 00:01:39;;;;;;;;;;;8.10;99.90;;;;;;5056172;28;20345;-62
2022/11/26 00:04:07;;;;;;;;;;;8.20;99.90;;;;;;5051311;28;19974;-61
2022/11/26 00:06:36;;;;;;;;;;;8.20;99.90;;;;;;5051045;28;19968;-62
2022/11/26 00:09:05;;;;;;;;;;;8.40;99.90;;;;;;5050343;28;19964;-61
2022/11/26 00:11:33;;;;;;;;;;;8.40;99.90;;;;;;5048858;28;19983;-61
2022/11/26 00:14:02;;;;;;;;;;;8.50;99.90;;;;;;5047488;28;19970;-61
2022/11/26 00:16:30;;;;;;;;;;;8.50;99.90;;;;;;5049952;28;20467;-61
2022/11/26 00:18:58;;;;;;;;;;;8.30;99.90;;;;;;5049864;28;20030;-61
2022/11/26 00:21:26;;;;;;;;;;;8.10;99.90;;;;;;5049091;28;19979;-60
2022/11/26 00:23:54;;;;;;;;;;;8.00;99.90;;;;;;5046079;28;19964;-61
2022/11/26 00:26:23;;;;;;;;;;;7.90;99.90;;;;;;5049932;28;19964;-61
2022/11/26 00:28:51;;;;;;;;;;;8.00;99.90;;;;;;5049838;28;19964;-61
2022/11/26 00:31:20;;;;;;;;;;;7.80;99.90;;;;;;5046362;28;19970;-61
2022/11/26 00:33:48;;;;;;;;;;;7.70;99.90;;;;;;5049702;28;20043;-61
2022/11/26 00:36:18;;;;;;;;;;;7.40;99.90;;;;;;5053558;28;20341;-60
2022/11/26 00:38:46;;;;;;;;;;;7.40;99.90;;;;;;5053758;28;19972;-61
2022/11/26 00:41:19;;;;;;;;;;;7.20;99.90;;;;;;5053307;28;19964;-61
2022/11/26 00:43:46;;;;;;;;;;;6.90;99.90;;;;;;5053657;28;19964;-61
2022/11/26 00:46:15;;;;;;;;;;;6.80;99.90;;;;;;5054028;28;19971;-61
2022/11/26 00:48:44;;;;;;;;;;;7.00;99.90;;;;;;5053216;28;20324;-61
2022/11/26 00:51:14;;;;;;;;;;;7.20;99.90;;;;;;5052767;28;19964;-61
2022/11/26 00:53:42;;;;;;;;;;;7.30;99.90;;;;;;5053330;28;19967;-62
2022/11/26 00:56:13;;;;;;;;;;;7.40;99.90;;;;;;5053743;28;19968;-61
2022/11/26 00:58:41;;;;;;;;;;;7.50;99.90;;;;;;5053689;28;19964;-62
2022/11/26 01:01:10;;;;;;;;;;;7.60;99.90;;;;;;5052698;28;19964;-61
2022/11/26 01:03:41;;;;;;;;;;;7.60;99.90;;;;;;5051366;28;19972;-61
2022/11/26 01:06:13;;;;;;;;;;;7.60;99.90;;;;;;5053031;28;19964;-61
2022/11/26 01:08:41;;;;;;;;;;;7.60;99.90;;;;;;5053361;28;19968;-61
2022/11/26 01:11:11;;;;;;;;;;;7.60;99.90;;;;;;5052649;28;19969;-61
2022/11/26 01:13:39;;;;;;;;;;;7.60;99.90;;;;;;5053332;28;19964;-62
2022/11/26 01:16:14;;;;;;;;;;;7.60;99.90;;;;;;5052304;28;19974;-62
2022/11/26 01:18:42;;;;;;;;;;;7.70;99.90;;;;;;5054155;28;20047;-62
2022/11/26 01:21:11;;;;;;;;;;;7.70;99.90;;;;;;5051618;28;19971;-62
2022/11/26 01:23:39;;;;;;;;;;;7.60;99.90;;;;;;5053119;28;20487;-62
2022/11/26 01:26:10;;;;;;;;;;;7.50;99.90;;;;;;5053024;28;20019;-62
2022/11/26 01:28:38;;;;;;;;;;;7.50;99.90;;;;;;5052607;28;20330;-62
2022/11/26 01:31:08;;;;;;;;;;;7.50;99.90;;;;;;5052514;28;19964;-62
2022/11/26 01:33:36;;;;;;;;;;;7.50;99.90;;;;;;5052940;28;19976;-62
2022/11/26 01:36:03;;;;;;;;;;;7.50;99.90;;;;;;5052938;28;19974;-62
2022/11/26 01:38:32;;;;;;;;;;;7.50;99.90;;;;;;5052080;28;19975;-62
2022/11/26 01:41:07;;;;;;;;;;;7.50;99.90;;;;;;5051931;28;20349;-62
2022/11/26 01:43:36;;;;;;;;;;;7.40;99.90;;;;;;5050070;28;20626;-62
2022/11/26 01:46:09;;;;;;;;;;;7.30;99.90;;;;;;5052449;28;20070;-62
2022/11/26 01:48:37;;;;;;;;;;;7.40;99.90;;;;;;5048506;28;19968;-62
2022/11/26 01:51:06;;;;;;;;;;;7.30;99.90;;;;;;5051615;28;19968;-63
2022/11/26 01:53:48;;;;;;;;;;;7.40;99.90;;;;;;5052358;28;20462;-62
2022/11/26 01:56:20;;;;;;;;;;;7.40;99.90;;;;;;5049753;28;19970;-62
2022/11/26 01:58:49;;;;;;;;;;;7.30;99.90;;;;;;5052368;28;19984;-62
2022/11/26 02:01:19;;;;;;;;;;;7.30;99.90;;;;;;5051832;28;19974;-62
2022/11/26 02:03:51;;;;;;;;;;;7.20;99.90;;;;;;5052397;28;19971;-63
2022/11/26 02:06:22;;;;;;;;;;;7.30;99.90;;;;;;5052017;28;20377;-63
2022/11/26 02:08:50;;;;;;;;;;;7.40;99.90;;;;;;5048614;28;19964;-63
2022/11/26 02:11:21;;;;;;;;;;;7.40;99.90;;;;;;5058983;28;19964;-63
2022/11/26 02:13:50;;;;;;;;;;;7.40;99.90;;;;;;5052044;28;19968;-63
2022/11/26 02:16:23;;;;;;;;;;;7.50;99.90;;;;;;5051995;28;19964;-63
2022/11/26 02:18:56;;;;;;;;;;;7.50;99.90;;;;;;5051743;28;20348;-63
2022/11/26 02:21:26;;;;;;;;;;;7.60;99.90;;;;;;5051451;28;19972;-63
2022/11/26 02:24:10;;;;;;;;;;;7.70;99.90;;;;;;5052355;28;19987;-63
2022/11/26 02:26:56;;;;;;;;;;;7.80;99.90;;;;;;5050647;28;19978;-63
2022/11/26 02:29:28;;;;;;;;;;;7.80;99.90;;;;;;5050161;28;19982;-63
2022/11/26 02:32:00;;;;;;;;;;;7.90;99.90;;;;;;5051846;28;20054;-63
2022/11/26 02:34:31;;;;;;;;;;;7.90;99.90;;;;;;5051506;28;20051;-63
2022/11/26 02:37:08;;;;;;;;;;;7.90;99.90;;;;;;5051600;28;19971;-63
2022/11/26 02:39:36;;;;;;;;;;;8.00;99.90;;;;;;5051335;28;20318;-62
2022/11/26 02:42:21;;;;;;;;;;;8.00;99.90;;;;;;5051557;28;19994;-63
2022/11/26 02:44:49;;;;;;;;;;;7.90;99.90;;;;;;5051698;28;20500;-63
2022/11/26 02:47:19;;;;;;;;;;;7.80;99.90;;;;;;5049580;28;19986;-63
2022/11/26 02:49:49;;;;;;;;;;;7.80;99.90;;;;;;5050407;28;20739;-63
2022/11/26 02:52:18;;;;;;;;;;;7.80;99.90;;;;;;5051606;28;19969;-63
2022/11/26 02:54:45;;;;;;;;;;;7.70;99.90;;;;;;5051531;28;20066;-62
2022/11/26 02:57:15;;;;;;;;;;;7.70;99.90;;;;;;5050670;28;19964;-62
2022/11/26 02:59:42;;;;;;;;;;;7.80;99.90;;;;;;5050535;28;20375;-62
2022/11/26 03:02:13;;;;;;;;;;;7.70;99.90;;;;;;5051016;28;19994;-62
2022/11/26 03:04:43;;;;;;;;;;;7.70;99.90;;;;;;5053393;28;19965;-63
2022/11/26 03:07:13;;;;;;;;;;;7.70;99.90;;;;;;5047491;28;20337;-63
2022/11/26 03:09:42;;;;;;;;;;;7.60;99.90;;;;;;5050580;28;20565;-62
2022/11/26 03:12:10;;;;;;;;;;;7.70;99.90;;;;;;5051200;28;19968;-62
2022/11/26 03:14:38;;;;;;;;;;;7.60;99.90;;;;;;5050957;28;19991;-61
2022/11/26 03:17:06;;;;;;;;;;;7.60;99.90;;;;;;5051080;28;20468;-61
2022/11/26 03:19:33;;;;;;;;;;;7.60;99.90;;;;;;5044557;28;19964;-61
2022/11/26 03:22:03;;;;;;;;;;;7.60;99.90;;;;;;5049860;28;19971;-61
2022/11/26 03:24:31;;;;;;;;;;;7.50;99.90;;;;;;5050808;28;20388;-61
2022/11/26 03:26:59;;;;;;;;;;;7.40;99.90;;;;;;5050796;28;19964;-61
2022/11/26 03:29:26;;;;;;;;;;;7.40;99.90;;;;;;5050341;28;20449;-61
2022/11/26 03:31:54;;;;;;;;;;;7.30;99.90;;;;;;5049959;28;19964;-61
2022/11/26 03:34:22;;;;;;;;;;;7.30;99.90;;;;;;5069556;22;19968;-66
2022/11/26 03:36:50;;;;;;;;;;;7.40;99.90;;;;;;5049796;28;19963;-66
2022/11/26 03:39:19;;;;;;;;;;;7.40;99.90;;;;;;5042324;28;20455;-66
2022/11/26 03:41:46;;;;;;;;;;;7.40;99.90;;;;;;5042658;28;19964;-67
2022/11/26 03:44:14;;;;;;;;;;;7.40;99.90;;;;;;5030999;28;19983;-66
2022/11/26 03:46:42;;;;;;;;;;;7.30;99.90;;;;;;5031226;28;20063;-66
2022/11/26 03:49:10;;;;;;;;;;;7.40;99.90;;;;;;5032056;28;19965;-66
2022/11/26 03:51:37;;;;;;;;;;;7.30;99.90;;;;;;5041607;28;19971;-66
2022/11/26 03:54:05;;;;;;;;;;;7.30;99.90;;;;;;5049312;28;19968;-66
2022/11/26 03:56:34;;;;;;;;;;;7.10;99.90;;;;;;5041251;28;19964;-66
2022/11/26 03:59:03;;;;;;;;;;;7.10;99.90;;;;;;5041661;28;19964;-65
2022/11/26 04:01:31;;;;;;;;;;;7.10;99.90;;;;;;5048268;28;19990;-66
2022/11/26 04:03:58;;;;;;;;;;;7.20;99.90;;;;;;5045203;28;20043;-66
2022/11/26 04:06:26;;;;;;;;;;;7.10;99.90;;;;;;5032556;28;19975;-66
2022/11/26 04:08:54;;;;;;;;;;;7.30;99.90;;;;;;5030629;28;19975;-65
2022/11/26 04:11:22;;;;;;;;;;;7.10;99.90;;;;;;5039429;28;20348;-66
2022/11/26 04:13:49;;;;;;;;;;;6.80;99.90;;;;;;5051471;28;19968;-64
2022/11/26 04:16:19;;;;;;;;;;;6.70;99.90;;;;;;5051262;28;19968;-65
2022/11/26 04:18:47;;;;;;;;;;;6.60;99.90;;;;;;5046665;28;20436;-66
2022/11/26 04:21:14;;;;;;;;;;;6.30;99.90;;;;;;5050134;28;19968;-66
2022/11/26 04:23:42;;;;;;;;;;;6.10;99.90;;;;;;5051224;28;19974;-65
2022/11/26 04:26:10;;;;;;;;;;;6.00;99.90;;;;;;5051121;28;19968;-65
2022/11/26 04:28:38;;;;;;;;;;;6.10;99.90;;;;;;5050828;28;19968;-66
2022/11/26 04:31:06;;;;;;;;;;;6.40;99.90;;;;;;5050502;28;19968;-66
2022/11/26 04:33:35;;;;;;;;;;;6.50;99.90;;;;;;5050597;28;19982;-65
2022/11/26 04:36:02;;;;;;;;;;;6.40;99.90;;;;;;5011400;28;19965;-65
2022/11/26 04:38:30;;;;;;;;;;;6.30;99.90;;;;;;5011446;28;20018;-66
2022/11/26 04:40:58;;;;;;;;;;;6.50;99.90;;;;;;5010761;28;19969;-65
2022/11/26 04:43:26;;;;;;;;;;;6.70;99.90;;;;;;5011505;28;19975;-65
2022/11/26 04:45:53;;;;;;;;;;;6.80;99.90;;;;;;5011247;28;20393;-66
2022/11/26 04:48:21;;;;;;;;;;;6.90;99.90;;;;;;5009683;28;20059;-66
2022/11/26 04:50:50;;;;;;;;;;;7.10;99.90;;;;;;5005237;28;19976;-66
2022/11/26 04:53:20;;;;;;;;;;;7.10;99.90;;;;;;5008582;28;19972;-66
2022/11/26 04:55:49;;;;;;;;;;;7.30;99.90;;;;;;5007742;28;19965;-66
2022/11/26 04:58:17;;;;;;;;;;;7.40;99.90;;;;;;5007536;28;19964;-65
2022/11/26 05:00:45;;;;;;;;;;;7.50;99.90;;;;;;4999259;28;19973;-66
2022/11/26 05:03:18;;;;;;;;;;;7.60;99.90;;;;;;5003589;28;20361;-66
2022/11/26 05:05:46;;;;;;;;;;;7.70;99.90;;;;;;4991723;28;19981;-66
2022/11/26 05:08:15;;;;;;;;;;;7.50;99.90;;;;;;4993012;28;20573;-66
2022/11/26 05:10:43;;;;;;;;;;;7.30;99.90;;;;;;4994690;28;19969;-66
2022/11/26 05:13:10;;;;;;;;;;;6.80;99.90;;;;;;4994953;28;20398;-66
2022/11/26 05:15:38;;;;;;;;;;;6.60;99.90;;;;;;4992531;28;20048;-66
2022/11/26 05:18:06;;;;;;;;;;;6.70;99.90;;;;;;4999182;28;20071;-66
2022/11/26 05:20:34;;;;;;;;;;;6.80;99.90;;;;;;4998372;28;20332;-66
2022/11/26 05:23:01;;;;;;;;;;;7.00;99.90;;;;;;4994660;28;19993;-66
2022/11/26 05:25:30;;;;;;;;;;;7.00;99.90;;;;;;5009188;28;19965;-66
2022/11/26 05:27:58;;;;;;;;;;;7.10;99.90;;;;;;5014470;28;20401;-66
2022/11/26 05:30:26;;;;;;;;;;;7.10;99.90;;;;;;5013023;28;19972;-66
2022/11/26 05:32:53;;;;;;;;;;;7.20;99.90;;;;;;5012879;28;19974;-67
2022/11/26 05:35:21;;;;;;;;;;;7.10;99.90;;;;;;5035018;28;19964;-66
2022/11/26 05:37:49;;;;;;;;;;;7.10;99.90;;;;;;5043182;28;19964;-66
2022/11/26 05:40:17;;;;;;;;;;;7.10;99.90;;;;;;5042360;28;19968;-66
2022/11/26 05:42:46;;;;;;;;;;;6.90;99.90;;;;;;5045318;28;19970;-67
2022/11/26 05:45:15;;;;;;;;;;;6.70;99.90;;;;;;5042313;28;19986;-66
2022/11/26 05:47:43;;;;;;;;;;;6.60;99.90;;;;;;5048089;28;19964;-66
2022/11/26 05:50:11;;;;;;;;;;;6.40;99.90;;;;;;5041165;28;20490;-67
2022/11/26 05:52:38;;;;;;;;;;;6.40;99.90;;;;;;5036928;28;20441;-67
2022/11/26 05:55:07;;;;;;;;;;;6.40;99.90;;;;;;5035124;28;19970;-67
2022/11/26 05:57:34;;;;;;;;;;;6.30;99.90;;;;;;5038415;28;19968;-67
2022/11/26 06:00:04;;;;;;;;;;;6.20;99.90;;;;;;5033401;28;19968;-67
2022/11/26 06:02:32;;;;;;;;;;;6.10;99.90;;;;;;5035759;28;19972;-67
2022/11/26 06:05:00;;;;;;;;;;;6.10;99.90;;;;;;5037904;28;20054;-67
2022/11/26 06:07:27;;;;;;;;;;;6.00;99.90;;;;;;5037319;28;19972;-67
2022/11/26 06:09:55;;;;;;;;;;;6.00;99.90;;;;;;5037967;28;20780;-66
2022/11/26 06:12:23;;;;;;;;;;;5.90;99.90;;;;;;5039236;28;19979;-67
2022/11/26 06:14:51;;;;;;;;;;;5.80;99.90;;;;;;5039258;28;19983;-67
2022/11/26 06:17:20;;;;;;;;;;;5.80;99.90;;;;;;5035746;28;19972;-67
2022/11/26 06:19:47;;;;;;;;;;;5.70;99.90;;;;;;5037166;28;19972;-67
2022/11/26 06:22:15;;;;;;;;;;;5.70;99.90;;;;;;5035876;28;19972;-67
2022/11/26 06:24:43;;;;;;;;;;;5.70;99.90;;;;;;5037357;28;19991;-67
2022/11/26 06:27:11;;;;;;;;;;;5.60;99.90;;;;;;5035765;28;19968;-67
2022/11/26 06:29:39;;;;;;;;;;;5.60;99.90;;;;;;5035637;28;19972;-67
2022/11/26 06:32:06;;;;;;;;;;;5.60;99.90;;;;;;5038028;28;19972;-67
2022/11/26 06:34:35;;;;;;;;;;;5.60;99.90;;;;;;5035883;28;19968;-67
2022/11/26 06:37:04;;;;;;;;;;;5.60;99.90;;;;;;5036697;28;19964;-67
2022/11/26 06:39:31;;;;;;;;;;;5.50;99.90;;;;;;5036945;28;19987;-67
2022/11/26 06:41:59;;;;;;;;;;;5.60;99.90;;;;;;5036733;28;19972;-67
2022/11/26 06:44:27;;;;;;;;;;;5.50;99.90;;;;;;5038565;28;19976;-67
2022/11/26 06:46:54;;;;;;;;;;;5.50;99.90;;;;;;5034248;28;20534;-67
2022/11/26 06:49:22;;;;;;;;;;;5.50;99.90;;;;;;5038291;28;19979;-67
2022/11/26 06:51:52;;;;;;;;;;;5.50;99.90;;;;;;5037131;28;19972;-67
2022/11/26 06:54:20;;;;;;;;;;;5.40;99.90;;;;;;5037802;28;19972;-67
2022/11/26 06:56:48;;;;;;;;;;;5.40;99.90;;;;;;5033108;28;19972;-66
2022/11/26 06:59:15;;;;;;;;;;;5.50;99.90;;;;;;5036964;28;20441;-67
2022/11/26 07:01:43;;;;;;;;;;;5.50;99.90;;;;;;5035131;28;20330;-66
2022/11/26 07:04:11;;;;;;;;;;;5.50;99.90;;;;;;5034613;28;21258;-67
2022/11/26 07:06:39;;;;;;;;;;;5.50;99.90;;;;;;5035194;28;19972;-67
2022/11/26 07:09:09;;;;;;;;;;;5.50;99.90;;;;;;5036912;28;19968;-67
2022/11/26 07:11:37;;;;;;;;;;;5.40;99.90;;;;;;5034916;28;19979;-67
2022/11/26 07:14:05;;;;;;;;;;;5.40;99.90;;;;;;5035827;28;19964;-66
2022/11/26 07:16:33;;;;;;;;;;;5.40;99.90;;;;;;5034911;28;19970;-67
2022/11/26 07:19:01;;;;;;;;;;;5.50;99.90;;;;;;5037580;28;19971;-67
2022/11/26 07:21:30;;;;;;;;;;;5.50;99.90;;;;;;5036638;28;19976;-67
2022/11/26 07:23:57;;;;;;;;;;;5.50;99.90;;;;;;5035806;28;19990;-67
2022/11/26 07:26:26;;;;;;;;;;;5.60;99.90;;;;;;5035524;28;20365;-68
2022/11/26 07:28:54;;;;;;;;;;;5.70;99.90;;;;;;5034880;28;19979;-67
2022/11/26 07:31:23;;;;;;;;;;;5.80;99.90;;;;;;5034031;28;20002;-67
2022/11/26 07:33:51;;;;;;;;;;;5.80;99.90;;;;;;5036738;28;19975;-67
2022/11/26 07:36:19;;;;;;;;;;;6.00;99.90;;;;;;5036104;28;19972;-67
2022/11/26 07:38:48;;;;;;;;;;;6.10;99.90;;;;;;5035208;28;19972;-67
2022/11/26 07:41:16;;;;;;;;;;;6.30;99.90;;;;;;5034870;28;19972;-66
2022/11/26 07:43:45;;;;;;;;;;;6.40;99.90;;;;;;5038785;28;20051;-66
2022/11/26 07:46:14;;;;;;;;;;;6.60;99.90;;;;;;5036962;28;19968;-66
2022/11/26 07:48:42;;;;;;;;;;;6.80;99.90;;;;;;5036242;28;19980;-67
2022/11/26 07:51:15;;;;;;;;;;;7.00;99.90;;;;;;5037265;28;20361;-67
2022/11/26 07:53:43;;;;;;;;;;;7.20;99.90;;;;;;5036599;28;19971;-66
2022/11/26 07:56:10;;;;;;;;;;;7.40;99.90;;;;;;5035092;28;19978;-67
2022/11/26 07:58:38;;;;;;;;;;;7.50;99.90;;;;;;5037926;28;19964;-66
2022/11/26 08:01:08;;;;;;;;;;;7.60;99.90;;;;;;5037047;28;20349;-67
2022/11/26 08:03:37;;;;;;;;;;;7.60;99.90;;;;;;5039088;28;20433;-66
2022/11/26 08:06:06;;;;;;;;;;;7.60;99.90;;;;;;5035744;28;19969;-67
2022/11/26 08:08:34;;;;;;;;;;;7.70;99.90;;;;;;5038127;28;19964;-66
2022/11/26 08:11:01;;;;;;;;;;;7.90;99.90;;;;;;5035273;28;20475;-66
2022/11/26 08:13:29;;;;;;;;;;;8.10;99.90;;;;;;5037609;28;19968;-67
2022/11/26 08:15:57;;;;;;;;;;;8.10;99.90;;;;;;5042613;28;19968;-69
2022/11/26 08:18:26;;;;;;;;;;;8.20;99.90;;;;;;5046006;28;20006;-68
2022/11/26 08:20:54;;;;;;;;;;;8.30;99.90;;;;;;5047905;28;19968;-68
2022/11/26 08:23:22;;;;;;;;;;;8.40;99.90;;;;;;5049619;28;19964;-67
2022/11/26 08:25:50;;;;;;;;;;;8.60;99.90;;;;;;5050896;28;20075;-67
2022/11/26 08:28:38;;;;;;;;;;;8.60;99.90;;;;;;5051094;28;19972;-67
2022/11/26 08:31:06;;;;;;;;;;;8.70;99.90;;;;;;5050080;28;19980;-67
2022/11/26 08:33:36;;;;;;;;;;;8.90;99.90;;;;;;5051082;28;19972;-66
2022/11/26 08:36:04;;;;;;;;;;;9.30;99.90;;;;;;5051439;28;19968;-67
2022/11/26 08:38:35;;;;;;;;;;;9.60;99.90;;;;;;5050951;28;20517;-68
2022/11/26 08:41:03;;;;;;;;;;;9.90;99.90;;;;;;5050194;28;19979;-67
2022/11/26 08:43:31;;;;;;;;;;;10.20;99.90;;;;;;5050967;28;19968;-68
2022/11/26 08:46:20;;;;;;;;;;;10.30;99.90;;;;;;5051151;28;20459;-67
2022/11/26 08:48:49;;;;;;;;;;;10.50;99.90;;;;;;5050978;28;19975;-67
2022/11/26 08:51:17;;;;;;;;;;;10.60;99.90;;;;;;5049918;28;19972;-67
2022/11/26 08:53:45;;;;;;;;;;;10.60;99.90;;;;;;5050632;28;19968;-67
2022/11/26 08:56:13;;;;;;;;;;;10.60;99.90;;;;;;5052710;28;20437;-67
2022/11/26 08:58:43;;;;;;;;;;;10.50;99.90;;;;;;5054781;28;20417;-67
2022/11/26 09:01:11;;;;;;;;;;;10.60;99.90;;;;;;5053752;28;20058;-67
2022/11/26 09:03:39;;;;;;;;;;;10.70;99.90;;;;;;5054784;28;19980;-67
2022/11/26 09:06:08;;;;;;;;;;;10.80;99.90;;;;;;5054607;28;19972;-67
2022/11/26 09:09:11;;;;;;;;;;;10.60;99.90;;;;;;5054698;28;19968;-66
2022/11/26 09:11:26;;;;;;;;;;;10.70;99.90;;;;;;5053571;28;20074;-67
2022/11/26 09:13:54;;;;;;;;;;;10.70;99.90;;;;;;5052584;28;19964;-67
2022/11/26 09:16:22;;;;;;;;;;;11.00;99.90;;;;;;5046141;28;19965;-67
2022/11/26 09:18:50;;;;;;;;;;;10.80;99.90;;;;;;5054422;28;19968;-67
2022/11/26 09:21:19;;;;;;;;;;;10.90;99.90;;;;;;5053440;28;19972;-67
2022/11/26 09:23:47;;;;;;;;;;;11.20;99.90;;;;;;5054563;28;19968;-67
2022/11/26 09:26:15;;;;;;;;;;;11.30;99.90;;;;;;5054214;28;19968;-67
2022/11/26 09:28:43;;;;;;;;;;;11.50;99.90;;;;;;5054549;28;19974;-67
2022/11/26 09:31:10;;;;;;;;;;;11.90;99.90;;;;;;5053429;28;20407;-67
2022/11/26 09:33:38;;;;;;;;;;;12.10;99.90;;;;;;5053503;28;19976;-67
2022/11/26 09:36:07;;;;;;;;;;;12.10;99.90;;;;;;5072740;23;20066;-62
2022/11/26 09:38:36;;;;;;;;;;;12.10;99.90;;;;;;5053548;28;20486;-63
2022/11/26 09:41:10;;;;;;;;;;;12.20;99.90;;;;;;5053127;28;19968;-62
2022/11/26 09:43:40;;;;;;;;;;;12.30;99.90;;;;;;5054263;28;19978;-62
2022/11/26 09:46:10;;;;;;;;;;;11.80;99.90;;;;;;5054356;28;19982;-62
2022/11/26 09:48:38;;;;;;;;;;;11.80;99.90;;;;;;5061867;28;19965;-62
2022/11/26 09:51:09;;;;;;;;;;;11.90;99.90;;;;;;5068655;28;19972;-62
2022/11/26 09:53:41;;;;;;;;;;;12.10;99.90;;;;;;5073714;28;19968;-62
2022/11/26 09:56:11;;;;;;;;;;;12.50;99.90;;;;;;5073875;28;19974;-63
2022/11/26 09:58:42;;;;;;;;;;;12.90;99.90;;;;;;5073678;28;20466;-62
2022/11/26 10:01:14;;;;;;;;;;;12.80;99.90;;;;;;5072942;28;19987;-62
2022/11/26 10:03:42;;;;;;;;;;;12.90;99.90;;;;;;5073633;28;20020;-63
2022/11/26 10:06:27;;;;;;;;;;;12.80;99.90;;;;;;5068703;28;19970;-63
2022/11/26 10:09:02;;;;;;;;;;;12.10;99.90;;;;;;5053149;28;19964;-62
2022/11/26 10:11:34;;;;;;;;;;;12.10;99.90;;;;;;5052675;28;19972;-62
2022/11/26 10:14:08;;;;;;;;;;;12.10;99.90;;;;;;5053487;28;19979;-62
2022/11/26 10:16:38;;;;;;;;;;;12.10;99.90;;;;;;5053304;28;20448;-63
2022/11/26 10:19:10;;;;;;;;;;;12.40;99.90;;;;;;5055859;28;19964;-62
2022/11/26 10:21:39;;;;;;;;;;;12.00;99.90;;;;;;5047126;28;19970;-62
2022/11/26 10:24:30;;;;;;;;;;;12.10;99.90;;;;;;5053156;28;20322;-62
2022/11/26 10:26:59;;;;;;;;;;;12.10;99.90;;;;;;5053314;28;19972;-62
2022/11/26 10:29:33;;;;;;;;;;;11.90;99.90;;;;;;5053090;28;19968;-62
2022/11/26 10:32:06;;;;;;;;;;;12.30;99.90;;;;;;5053121;28;19972;-62
2022/11/26 10:34:38;;;;;;;;;;;12.50;99.90;;;;;;5052371;28;19968;-62
2022/11/26 10:37:06;;;;;;;;;;;12.50;99.90;;;;;;5052971;28;19968;-63
2022/11/26 10:39:35;;;;;;;;;;;12.20;99.90;;;;;;5052501;28;19969;-61
2022/11/26 10:42:04;;;;;;;;;;;11.80;99.90;;;;;;5052911;28;19976;-62
2022/11/26 10:44:36;;;;;;;;;;;11.60;99.90;;;;;;5052787;28;19974;-62
2022/11/26 10:47:21;;;;;;;;;;;11.70;99.90;;;;;;5052572;28;19968;-62
2022/11/26 10:49:49;;;;;;;;;;;11.70;99.90;;;;;;5053675;28;20007;-62
2022/11/26 10:52:18;;;;;;;;;;;11.90;99.90;;;;;;5052835;28;19975;-62
2022/11/26 10:55:06;;;;;;;;;;;12.00;99.90;;;;;;5052422;28;19979;-62
2022/11/26 10:57:36;;;;;;;;;;;12.20;99.90;;;;;;5052282;28;19972;-62
2022/11/26 11:00:04;;;;;;;;;;;12.50;99.90;;;;;;5050809;28;20437;-63
2022/11/26 11:02:35;;;;;;;;;;;12.90;99.90;;;;;;5052429;28;20356;-63
2022/11/26 11:05:05;;;;;;;;;;;12.70;99.90;;;;;;5052305;28;19976;-62
2022/11/26 11:07:40;;;;;;;;;;;12.50;99.90;;;;;;5052234;28;19972;-62
2022/11/26 11:10:15;;;;;;;;;;;12.20;99.90;;;;;;5051657;28;19972;-63
2022/11/26 11:12:45;;;;;;;;;;;12.30;99.90;;;;;;5052474;28;19968;-63
2022/11/26 11:15:19;;;;;;;;;;;12.60;99.90;;;;;;5052287;28;19972;-63
2022/11/26 11:17:53;;;;;;;;;;;12.70;99.90;;;;;;5056886;28;19964;-62
2022/11/26 11:20:25;;;;;;;;;;;13.40;99.90;;;;;;5062735;28;20297;-63
2022/11/26 11:23:14;;;;;;;;;;;13.80;99.90;;;;;;5072258;28;19990;-63
2022/11/26 11:25:44;;;;;;;;;;;14.00;99.90;;;;;;5068502;28;19978;-62
2022/11/26 11:28:16;;;;;;;;;;;13.90;99.90;;;;;;5072080;28;20251;-63
2022/11/26 11:30:44;;;;;;;;;;;13.80;99.90;;;;;;5071270;28;19975;-63
2022/11/26 11:33:18;;;;;;;;;;;13.70;99.90;;;;;;5072018;28;19971;-62
2022/11/26 11:35:57;;;;;;;;;;;13.60;99.90;;;;;;5071433;28;20197;-62
2022/11/26 11:38:26;;;;;;;;;;;13.50;99.90;;;;;;5071817;28;19975;-62
2022/11/26 11:40:56;;;;;;;;;;;13.40;99.90;;;;;;5071302;28;19982;-62
2022/11/26 11:43:25;;;;;;;;;;;12.70;99.90;;;;;;5071506;28;20010;-62
2022/11/26 11:46:02;;;;;;;;;;;12.00;99.90;;;;;;5071578;28;20462;-63
2022/11/26 11:48:36;;;;;;;;;;;11.30;99.90;;;;;;5065345;28;19979;-62
2022/11/26 11:51:10;;;;;;;;;;;10.90;99.90;;;;;;5066336;28;19968;-62
2022/11/26 11:53:44;;;;;;;;;;;10.60;99.90;;;;;;5053697;28;19964;-62
2022/11/26 11:56:22;;;;;;;;;;;10.30;99.90;;;;;;5048028;28;20366;-62
2022/11/26 11:58:59;;;;;;;;;;;10.00;99.90;;;;;;5031699;28;19975;-62
2022/11/26 12:01:32;;;;;;;;;;;9.80;99.90;;;;;;5030930;28;19977;-62
2022/11/26 12:04:05;;;;;;;;;;;9.60;99.90;;;;;;5031330;28;19968;-62
2022/11/26 12:06:39;;;;;;;;;;;9.40;99.90;;;;;;5031656;28;19968;-62
2022/11/26 12:09:12;;;;;;;;;;;9.20;99.90;;;;;;5031699;28;19972;-62
2022/11/26 12:11:46;;;;;;;;;;;9.30;99.90;;;;;;5030824;28;20528;-62
2022/11/26 12:14:17;;;;;;;;;;;9.30;99.90;;;;;;5031454;28;19969;-62
2022/11/26 12:16:46;;;;;;;;;;;9.20;99.90;;;;;;5031159;28;19973;-62
2022/11/26 12:19:18;;;;;;;;;;;9.30;99.90;;;;;;5056685;28;20062;-62
2022/11/26 12:21:50;;;;;;;;;;;9.10;99.90;;;;;;5070579;28;19972;-62
2022/11/26 12:24:22;;;;;;;;;;;9.10;99.90;;;;;;5071323;28;20344;-62
2022/11/26 12:26:54;;;;;;;;;;;8.80;99.90;;;;;;5071090;28;20362;-62
2022/11/26 12:29:25;;;;;;;;;;;8.50;99.90;;;;;;5071439;28;19972;-62
2022/11/26 12:31:56;;;;;;;;;;;8.30;99.90;;;;;;5074322;28;20348;-62
2022/11/26 12:34:28;;;;;;;;;;;8.20;99.90;;;;;;5075115;28;20074;-62
2022/11/26 12:36:59;;;;;;;;;;;8.10;99.90;;;;;;5075170;28;19975;-62
2022/11/26 12:39:33;;;;;;;;;;;8.00;99.90;;;;;;5075443;28;19972;-62
2022/11/26 12:42:05;;;;;;;;;;;7.90;99.90;;;;;;5075401;28;20235;-62
2022/11/26 12:44:35;;;;;;;;;;;7.90;99.90;;;;;;5075189;28;19976;-62
2022/11/26 12:47:08;;;;;;;;;;;7.90;99.90;;;;;;5054453;28;19971;-62
2022/11/26 12:49:39;;;;;;;;;;;7.80;99.90;;;;;;5054614;28;20062;-61
2022/11/26 12:52:11;;;;;;;;;;;7.90;99.90;;;;;;5054921;28;19968;-62
2022/11/26 12:54:41;;;;;;;;;;;7.80;99.90;;;;;;5055094;28;19968;-62
2022/11/26 12:57:14;;;;;;;;;;;7.80;99.90;;;;;;5054903;28;20341;-62
2022/11/26 12:59:45;;;;;;;;;;;7.90;99.90;;;;;;5054250;28;19972;-62
2022/11/26 13:02:17;;;;;;;;;;;8.00;99.90;;;;;;5055279;28;20054;-62
2022/11/26 13:04:45;;;;;;;;;;;8.00;99.90;;;;;;5054894;28;20030;-62
2022/11/26 13:07:18;;;;;;;;;;;7.90;99.90;;;;;;5054780;28;20075;-62
2022/11/26 13:10:02;;;;;;;;;;;7.90;99.90;;;;;;5054140;28;19968;-62
2022/11/26 13:12:37;;;;;;;;;;;7.90;99.90;;;;;;5054326;28;20445;-61
2022/11/26 13:15:09;;;;;;;;;;;7.90;99.90;;;;;;5054443;28;19968;-63
2022/11/26 13:17:40;;;;;;;;;;;7.90;99.90;;;;;;5058297;28;19970;-62
2022/11/26 13:20:12;;;;;;;;;;;7.80;99.90;;;;;;5065338;28;19978;-62
2022/11/26 13:22:46;;;;;;;;;;;7.90;99.90;;;;;;5074187;28;20436;-62
2022/11/26 13:25:32;;;;;;;;;;;7.80;99.90;;;;;;5074416;28;19968;-62
2022/11/26 13:28:07;;;;;;;;;;;7.90;99.90;;;;;;5067499;28;19971;-62
2022/11/26 13:30:39;;;;;;;;;;;7.90;99.90;;;;;;5073869;28;19972;-62
2022/11/26 13:33:24;;;;;;;;;;;7.90;99.90;;;;;;5074040;28;20334;-62
2022/11/26 13:36:16;;;;;;;;;;;7.90;99.90;;;;;;5073498;28;20352;-62
2022/11/26 13:38:49;;;;;;;;;;;7.80;99.90;;;;;;5063415;28;20344;-62
2022/11/26 13:41:34;;;;;;;;;;;7.80;99.90;;;;;;5052638;28;20680;-62
2022/11/26 13:44:11;;;;;;;;;;;7.70;99.90;;;;;;5053727;28;19968;-62
2022/11/26 13:46:40;;;;;;;;;;;7.70;99.90;;;;;;5054013;28;19976;-62
2022/11/26 13:49:10;;;;;;;;;;;7.70;99.90;;;;;;5062269;28;19965;-62
2022/11/26 13:51:44;;;;;;;;;;;7.70;99.90;;;;;;5033311;28;19975;-63
2022/11/26 13:54:13;;;;;;;;;;;7.70;99.90;;;;;;5033967;28;19973;-62
2022/11/26 13:56:42;;;;;;;;;;;7.60;99.90;;;;;;5033995;28;19979;-62
2022/11/26 13:59:14;;;;;;;;;;;7.50;99.90;;;;;;5033918;28;20448;-62
2022/11/26 14:01:42;;;;;;;;;;;7.40;99.90;;;;;;5033275;28;20015;-62
2022/11/26 14:04:11;;;;;;;;;;;7.50;99.90;;;;;;5033599;28;19973;-62
2022/11/26 14:06:59;;;;;;;;;;;7.50;99.90;;;;;;5035178;28;19972;-62
2022/11/26 14:09:42;;;;;;;;;;;7.50;99.90;;;;;;5038182;28;20659;-61
2022/11/26 14:12:10;;;;;;;;;;;7.40;99.90;;;;;;5040860;28;19963;-62
2022/11/26 14:14:39;;;;;;;;;;;7.40;99.90;;;;;;5040958;28;20466;-62
2022/11/26 14:17:12;;;;;;;;;;;7.40;99.90;;;;;;5041647;28;20405;-62
2022/11/26 14:19:58;;;;;;;;;;;7.40;99.90;;;;;;5040457;28;19975;-60
2022/11/26 14:22:27;;;;;;;;;;;7.40;99.90;;;;;;5040082;28;19979;-61
2022/11/26 14:24:57;;;;;;;;;;;7.40;99.90;;;;;;5039801;28;19972;-61
2022/11/26 14:27:27;;;;;;;;;;;7.40;99.90;;;;;;5041649;28;19976;-62
2022/11/26 14:29:59;;;;;;;;;;;7.40;99.90;;;;;;5040327;28;19972;-62
2022/11/26 14:32:29;;;;;;;;;;;7.40;99.90;;;;;;5040735;28;19982;-61
2022/11/26 14:34:57;;;;;;;;;;;7.30;99.90;;;;;;5034884;28;19978;-61
2022/11/26 14:37:26;;;;;;;;;;;7.30;99.90;;;;;;5037014;28;19983;-60
2022/11/26 14:39:58;;;;;;;;;;;7.30;99.90;;;;;;5036880;28;20355;-61
2022/11/26 14:42:26;;;;;;;;;;;7.40;99.90;;;;;;5034291;28;20372;-61
2022/11/26 14:45:02;;;;;;;;;;;7.40;99.90;;;;;;5036622;28;19983;-61